TimeCDT,TemperatureF,Dew PointF,Humidity,Sea Level PressureIn,VisibilityMPH,Wind Direction,Wind SpeedMPH,Gust SpeedMPH,PrecipitationIn,Events,Conditions,WindDirDegrees,DateUTC
12:13 AM,28.4,26.6,93,30.36,10.0,Calm,Calm,-,N/A,,Clear,0,2013-10-14 05:13:00
12:33 AM,28.4,26.6,93,30.36,10.0,Calm,Calm,-,N/A,,Clear,0,2013-10-14 05:33:00
12:53 AM,28.4,26.6,93,30.37,10.0,Calm,Calm,-,N/A,,Clear,0,2013-10-14 05:53:00
1:13 AM,30.2,28.4,93,30.38,10.0,Calm,Calm,-,N/A,,Clear,0,2013-10-14 06:13:00
1:33 AM,30.2,28.4,93,30.38,10.0,Calm,Calm,-,N/A,,Clear,0,2013-10-14 06:33:00
1:53 AM,28.4,26.6,93,30.39,10.0,Calm,Calm,-,N/A,,Clear,0,2013-10-14 06:53:00
2:13 AM,30.2,28.4,93,30.39,10.0,Calm,Calm,-,N/A,,Clear,0,2013-10-14 07:13:00
2:33 AM,30.2,28.4,93,30.39,10.0,Calm,Calm,-,N/A,,Clear,0,2013-10-14 07:33:00
2:53 AM,30.2,28.4,93,30.38,10.0,Calm,Calm,-,N/A,,Clear,0,2013-10-14 07:53:00
3:13 AM,26.6,24.8,93,30.38,10.0,Calm,Calm,-,N/A,,Clear,0,2013-10-14 08:13:00
3:33 AM,30.2,26.6,86,30.37,10.0,Calm,Calm,-,N/A,,Unknown,0,2013-10-14 08:33:00
3:53 AM,26.6,24.8,93,30.37,10.0,Calm,Calm,-,N/A,,Unknown,0,2013-10-14 08:53:00
4:13 AM,28.4,26.6,93,30.37,10.0,Calm,Calm,-,N/A,,Mostly Cloudy,0,2013-10-14 09:13:00
4:33 AM,33.8,30.2,87,30.37,10.0,Calm,Calm,-,N/A,,Unknown,0,2013-10-14 09:33:00
4:53 AM,32.0,28.4,87,30.36,10.0,Calm,Calm,-,N/A,,Unknown,0,2013-10-14 09:53:00
5:13 AM,28.4,26.6,93,30.36,10.0,SSE,3.5,-,N/A,,Unknown,160,2013-10-14 10:13:00
5:33 AM,28.4,26.6,93,30.36,10.0,Calm,Calm,-,N/A,,Unknown,0,2013-10-14 10:33:00
5:53 AM,28.4,26.6,93,30.36,10.0,Calm,Calm,-,N/A,,Unknown,0,2013-10-14 10:53:00
6:13 AM,28.4,26.6,93,30.36,10.0,Calm,Calm,-,N/A,,Unknown,0,2013-10-14 11:13:00
6:33 AM,28.4,26.6,93,30.35,10.0,Calm,Calm,-,N/A,,Unknown,0,2013-10-14 11:33:00
6:53 AM,30.2,28.4,93,30.35,10.0,Calm,Calm,-,N/A,,Unknown,0,2013-10-14 11:53:00
7:13 AM,30.2,28.4,93,30.35,10.0,Calm,Calm,-,N/A,,Mostly Cloudy,0,2013-10-14 12:13:00
7:33 AM,30.2,28.4,93,30.36,10.0,Calm,Calm,-,N/A,,Overcast,0,2013-10-14 12:33:00
7:53 AM,35.6,32.0,87,30.35,10.0,Calm,Calm,-,N/A,,Unknown,0,2013-10-14 12:53:00
8:13 AM,33.8,30.2,87,30.36,10.0,Calm,Calm,-,N/A,,Overcast,0,2013-10-14 13:13:00
8:33 AM,33.8,30.2,87,30.36,10.0,Calm,Calm,-,N/A,,Overcast,0,2013-10-14 13:33:00
8:53 AM,35.6,33.8,93,30.36,10.0,Calm,Calm,-,N/A,,Overcast,0,2013-10-14 13:53:00
9:13 AM,37.4,33.8,87,30.35,10.0,Calm,Calm,-,N/A,,Overcast,0,2013-10-14 14:13:00
9:33 AM,37.4,33.8,87,30.35,10.0,Calm,Calm,-,N/A,,Overcast,0,2013-10-14 14:33:00
9:53 AM,39.2,35.6,87,30.36,10.0,Calm,Calm,-,N/A,,Overcast,0,2013-10-14 14:53:00
10:33 AM,42.8,33.8,70,30.36,10.0,Calm,Calm,-,N/A,,Overcast,0,2013-10-14 15:33:00
10:53 AM,44.6,33.8,66,30.35,10.0,Calm,Calm,-,N/A,,Overcast,0,2013-10-14 15:53:00
11:13 AM,44.6,33.8,66,30.35,10.0,Calm,Calm,-,N/A,,Overcast,0,2013-10-14 16:13:00
11:33 AM,44.6,33.8,66,30.34,10.0,Calm,Calm,-,N/A,,Overcast,0,2013-10-14 16:33:00
11:53 AM,46.4,33.8,62,30.33,10.0,Calm,Calm,-,N/A,,Overcast,0,2013-10-14 16:53:00
12:13 PM,46.4,33.8,62,30.33,10.0,Calm,Calm,-,N/A,,Overcast,0,2013-10-14 17:13:00
12:33 PM,48.2,33.8,58,30.32,10.0,Calm,Calm,-,N/A,,Overcast,0,2013-10-14 17:33:00
12:53 PM,48.2,33.8,58,30.32,10.0,SE,3.5,-,N/A,,Overcast,130,2013-10-14 17:53:00
1:13 PM,48.2,33.8,58,30.32,10.0,Calm,Calm,-,N/A,,Overcast,0,2013-10-14 18:13:00
1:33 PM,48.2,33.8,58,30.31,10.0,Calm,Calm,-,N/A,,Overcast,0,2013-10-14 18:33:00
1:53 PM,48.2,33.8,58,30.31,10.0,Calm,Calm,-,N/A,,Unknown,0,2013-10-14 18:53:00
2:13 PM,48.2,33.8,58,30.30,10.0,Calm,Calm,-,N/A,,Scattered Clouds,0,2013-10-14 19:13:00
2:33 PM,48.2,33.8,58,30.29,10.0,Calm,Calm,-,N/A,,Scattered Clouds,0,2013-10-14 19:33:00
2:53 PM,48.2,33.8,58,30.28,10.0,Calm,Calm,-,N/A,,Scattered Clouds,0,2013-10-14 19:53:00
3:13 PM,48.2,33.8,58,30.27,10.0,Calm,Calm,-,N/A,,Scattered Clouds,0,2013-10-14 20:13:00
3:33 PM,48.2,35.6,62,30.26,10.0,Calm,Calm,-,N/A,Rain,Rain,0,2013-10-14 20:33:00
3:53 PM,48.2,35.6,62,30.26,10.0,Calm,Calm,-,N/A,,Light Drizzle,0,2013-10-14 20:53:00
4:13 PM,48.2,37.4,66,30.26,10.0,Calm,Calm,-,N/A,,Light Drizzle,0,2013-10-14 21:13:00
4:35 PM,46.4,37.4,71,30.25,10.0,Calm,Calm,-,N/A,,Light Drizzle,0,2013-10-14 21:35:00
4:53 PM,46.4,39.2,76,30.25,10.0,Calm,Calm,-,N/A,,Drizzle,0,2013-10-14 21:53:00
5:13 PM,46.4,39.2,76,30.24,10.0,Calm,Calm,-,N/A,,Light Drizzle,0,2013-10-14 22:13:00
5:33 PM,46.4,39.2,76,30.24,10.0,Calm,Calm,-,N/A,,Light Drizzle,0,2013-10-14 22:33:00
5:53 PM,46.4,39.2,76,30.24,10.0,Calm,Calm,-,N/A,,Drizzle,0,2013-10-14 22:53:00
6:13 PM,44.6,41.0,87,30.24,10.0,Calm,Calm,-,N/A,,Overcast,0,2013-10-14 23:13:00
6:33 PM,44.6,41.0,87,30.25,10.0,Calm,Calm,-,0.01,Rain,Light Rain,0,2013-10-14 23:33:00
6:53 PM,44.6,41.0,87,30.24,10.0,Calm,Calm,-,0.02,Rain,Light Rain,0,2013-10-14 23:53:00
7:13 PM,44.6,39.2,81,30.24,10.0,Calm,Calm,-,0.02,Rain,Light Rain,0,2013-10-15 00:13:00
7:33 PM,44.6,41.0,87,30.24,10.0,Calm,Calm,-,0.03,,Overcast,0,2013-10-15 00:33:00
7:53 PM,44.6,39.2,81,30.24,7.0,Calm,Calm,-,0.04,Rain,Light Rain,0,2013-10-15 00:53:00
8:13 PM,42.8,39.2,87,30.24,10.0,Calm,Calm,-,0.01,Rain,Light Rain,0,2013-10-15 01:13:00
8:33 PM,42.8,41.0,93,30.24,10.0,Calm,Calm,-,0.03,Rain,Light Rain,0,2013-10-15 01:33:00
8:53 PM,42.8,39.2,87,30.24,10.0,Calm,Calm,-,0.04,Rain,Light Rain,0,2013-10-15 01:53:00
9:13 PM,42.8,39.2,87,30.24,10.0,Calm,Calm,-,0.02,Rain,Light Rain,0,2013-10-15 02:13:00
9:33 PM,42.8,39.2,87,30.24,10.0,Calm,Calm,-,0.05,Rain,Light Rain,0,2013-10-15 02:33:00
9:53 PM,42.8,39.2,87,30.22,5.0,Calm,Calm,-,0.09,Rain,Light Rain,0,2013-10-15 02:53:00
10:13 PM,42.8,39.2,87,30.20,4.0,NE,3.5,-,0.06,Rain,Rain,50,2013-10-15 03:13:00
10:33 PM,42.8,39.2,87,30.21,7.0,Calm,Calm,-,0.10,Rain,Light Rain,0,2013-10-15 03:33:00
10:53 PM,42.8,39.2,87,30.18,7.0,Calm,Calm,-,0.13,Rain,Light Rain,0,2013-10-15 03:53:00
11:13 PM,42.8,39.2,87,30.19,10.0,Calm,Calm,-,0.01,,Overcast,0,2013-10-15 04:13:00
11:33 PM,42.8,39.2,87,30.19,10.0,East,4.6,-,0.01,,Overcast,100,2013-10-15 04:33:00
11:53 PM,42.8,39.2,87,30.16,7.0,NE,5.8,-,0.01,Rain,Rain,50,2013-10-15 04:53:00